»·PEaware :: N727CR KDFW-KMSY

N727CR :: KDFW-KMSY

FLIGHT INFORMATION

Flight Status: Arrived
Operator: Privately registered:
United States
More flights under this callsign
Pilot: Anonymous 5323 (5323)
Aircraft: Unknown
(B29)
More flights by this aircraft type
Origin: KDFW Dallas-Ft Worth Intl
United States
Destination: KMSY Armstrong New Orleans Intl
United States
More flights between these airports :: More routes between these airports
Route: KMSY
File this flight plan on PilotEdge
Remarks:
Altitude:
(Current/Filed)
15,500ft
Speed:
(Current/Filed)
180kts
Departed: 10-Apr-16 01:21 PM
Arrived: 10-Apr-16 03:11 PM
Distance/Time
Traveled:
389nm/1:50
Distance/Time
To Go:
Arrived

Flight Plot

Page will automatically refresh every two minutes.


Map Options




Map Legend


Flown Route
Filed Route
Departure Airport
Arrival Airport
Navaid (VOR, NDB)
Fix

Horizontal Profiles

Position Reports

Time Latitude Longitude Heading Altitude Ground
Speed
10-Apr-16 12:42 32.903186 -97.035188 313 616ft 0kts
10-Apr-16 12:43 32.903186 -97.035188 313 616ft 0kts
10-Apr-16 12:44 32.903186 -97.035188 313 616ft 0kts
10-Apr-16 12:45 32.903186 -97.035188 313 616ft 0kts
10-Apr-16 12:46 32.903186 -97.035188 313 616ft 0kts
10-Apr-16 12:47 32.903186 -97.035188 313 616ft 0kts
10-Apr-16 12:48 32.903186 -97.035188 313 616ft 0kts
10-Apr-16 12:49 32.903186 -97.035188 313 616ft 0kts
10-Apr-16 12:50 32.903186 -97.035188 313 616ft 0kts
10-Apr-16 12:51 32.903186 -97.035188 313 616ft 0kts
10-Apr-16 12:52 32.903186 -97.035188 313 616ft 0kts
10-Apr-16 12:53 32.903186 -97.035188 313 616ft 0kts
10-Apr-16 12:54 32.902796 -97.034710 313 616ft 2kts
10-Apr-16 12:55 32.902559 -97.034420 313 616ft 0kts
10-Apr-16 12:56 32.902559 -97.034420 313 616ft 0kts
10-Apr-16 12:57 32.902559 -97.034420 313 616ft 0kts
10-Apr-16 12:58 32.902559 -97.034420 313 616ft 0kts
10-Apr-16 12:59 32.902559 -97.034420 313 616ft 0kts
10-Apr-16 13:00 32.902559 -97.034420 313 616ft 0kts
10-Apr-16 13:01 32.902560 -97.034421 313 616ft 0kts
10-Apr-16 13:02 32.902560 -97.034421 312 616ft 0kts
10-Apr-16 13:03 32.902561 -97.034422 312 616ft 0kts
10-Apr-16 13:04 32.902562 -97.034423 312 616ft 0kts
10-Apr-16 13:04 32.902562 -97.034424 312 616ft 0kts
10-Apr-16 13:06 32.902590 -97.034460 312 616ft 2kts
10-Apr-16 13:07 32.903314 -97.032399 91 616ft 12kts
10-Apr-16 13:07 32.904287 -97.031853 1 616ft 12kts
10-Apr-16 13:08 32.908945 -97.031785 0 616ft 17kts
10-Apr-16 13:09 32.912826 -97.031776 358 616ft 11kts
10-Apr-16 13:10 32.915510 -97.031705 42 616ft 3kts
10-Apr-16 13:11 32.914650 -97.029814 181 616ft 26kts
10-Apr-16 13:12 32.891186 -97.029665 176 912ft 112kts
10-Apr-16 13:13 32.857276 -97.025561 164 1554ft 135kts
10-Apr-16 13:14 32.838416 -96.985081 123 2534ft 149kts
10-Apr-16 13:15 32.819272 -96.936835 123 3242ft 167kts
10-Apr-16 13:16 32.799793 -96.885936 123 4079ft 170kts
10-Apr-16 13:17 32.780395 -96.834139 123 4857ft 172kts
10-Apr-16 13:18 32.760887 -96.781142 122 5684ft 177kts
10-Apr-16 13:19 32.740986 -96.726924 123 6509ft 180kts
10-Apr-16 13:20 32.719981 -96.671905 123 7404ft 183kts
10-Apr-16 13:21 32.699274 -96.618671 123 8028ft 175kts
10-Apr-16 13:22 32.678148 -96.566121 123 8668ft 176kts
10-Apr-16 13:23 32.656403 -96.513696 122 9265ft 177kts
10-Apr-16 13:24 32.633889 -96.460854 123 9577ft 180kts
10-Apr-16 13:25 32.610823 -96.407856 123 9798ft 181kts
10-Apr-16 13:26 32.587391 -96.354360 122 10015ft 183kts
10-Apr-16 13:27 32.564090 -96.300236 122 10253ft 184kts
10-Apr-16 13:28 32.540363 -96.245889 122 10430ft 186kts
10-Apr-16 13:29 32.516262 -96.191302 122 10627ft 187kts
10-Apr-16 13:30 32.495688 -96.134384 105 10772ft 193kts
10-Apr-16 13:31 32.484309 -96.072211 105 10989ft 193kts
10-Apr-16 13:32 32.472728 -96.010595 105 11001ft 188kts
10-Apr-16 13:33 32.460884 -95.947693 106 11005ft 200kts
10-Apr-16 13:34 32.448519 -95.881944 106 11002ft 206kts
10-Apr-16 13:35 32.429328 -95.818355 115 11001ft 206kts
10-Apr-16 13:36 32.408817 -95.754304 115 10998ft 206kts
10-Apr-16 13:37 32.388561 -95.690923 115 10997ft 203kts
10-Apr-16 13:38 32.369292 -95.630167 114 10993ft 192kts
10-Apr-16 13:39 32.350933 -95.571585 114 10994ft 186kts
10-Apr-16 13:40 32.332749 -95.513501 114 11002ft 189kts
10-Apr-16 13:41 32.314278 -95.454695 114 11001ft 191kts
10-Apr-16 13:43 32.291644 -95.395339 125 10993ft 198kts
10-Apr-16 13:44 32.268121 -95.337167 117 10997ft 195kts
10-Apr-16 13:45 32.250111 -95.275110 114 11010ft 206kts
10-Apr-16 13:46 32.222205 -95.214261 123 11017ft 217kts
10-Apr-16 13:47 32.191908 -95.150190 123 11023ft 228kts
10-Apr-16 13:48 32.159899 -95.083433 123 11029ft 237kts
10-Apr-16 13:49 32.126824 -95.015060 123 11031ft 241kts
10-Apr-16 13:50 32.093155 -94.945707 124 11028ft 243kts
10-Apr-16 13:51 32.059239 -94.875946 123 11020ft 245kts
10-Apr-16 13:52 32.025281 -94.806224 124 11020ft 244kts
10-Apr-16 13:53 31.991377 -94.736618 123 11020ft 244kts
10-Apr-16 13:54 31.957465 -94.667728 123 11023ft 243kts
10-Apr-16 13:55 31.923599 -94.599010 123 11026ft 241kts
10-Apr-16 13:56 31.889972 -94.530792 123 11024ft 239kts
10-Apr-16 13:57 31.856523 -94.463078 124 11030ft 237kts
10-Apr-16 13:58 31.823438 -94.395727 124 11032ft 237kts
10-Apr-16 13:59 31.790514 -94.328457 123 11032ft 236kts
10-Apr-16 14:00 31.757530 -94.261301 124 11037ft 237kts
10-Apr-16 14:01 31.724297 -94.193709 123 11037ft 239kts
10-Apr-16 14:02 31.690890 -94.125936 124 11044ft 239kts
10-Apr-16 14:03 31.657390 -94.058058 124 11047ft 239kts
10-Apr-16 14:03 31.629443 -94.001441 123 11045ft 240kts
10-Apr-16 14:05 31.590365 -93.922140 124 11075ft 240kts
10-Apr-16 14:05 31.562392 -93.865231 123 11069ft 242kts
10-Apr-16 14:06 31.529094 -93.796201 119 11061ft 245kts
10-Apr-16 14:07 31.506494 -93.720244 109 11069ft 247kts
10-Apr-16 14:08 31.486478 -93.643136 110 11066ft 247kts
10-Apr-16 14:09 31.466396 -93.565986 110 11068ft 246kts
10-Apr-16 14:10 31.446442 -93.489240 110 11068ft 245kts
10-Apr-16 14:11 31.426681 -93.412964 110 11068ft 243kts
10-Apr-16 14:12 31.404282 -93.338386 119 11069ft 240kts
10-Apr-16 14:13 31.374881 -93.267991 119 11069ft 240kts
10-Apr-16 14:14 31.345572 -93.197498 119 11072ft 240kts
10-Apr-16 14:15 31.316019 -93.126693 119 11067ft 242kts
10-Apr-16 14:16 31.286260 -93.055649 119 11076ft 244kts
10-Apr-16 14:17 31.256271 -92.983610 119 11079ft 247kts
10-Apr-16 14:18 31.226142 -92.911184 119 11075ft 247kts
10-Apr-16 14:19 31.196058 -92.838753 119 11081ft 248kts
10-Apr-16 14:20 31.165999 -92.766146 119 11079ft 247kts
10-Apr-16 14:21 31.135948 -92.693641 119 11079ft 246kts
10-Apr-16 14:22 31.106133 -92.621738 119 11076ft 244kts
10-Apr-16 14:23 31.076588 -92.550376 119 11101ft 243kts
10-Apr-16 14:24 31.047752 -92.477752 118 11003ft 247kts
10-Apr-16 14:25 31.019551 -92.404503 118 11005ft 246kts
10-Apr-16 14:26 30.991702 -92.332090 118 11008ft 242kts
10-Apr-16 14:27 30.964197 -92.260830 118 11020ft 240kts
10-Apr-16 14:28 30.936881 -92.189895 118 11024ft 239kts
10-Apr-16 14:29 30.909259 -92.118093 118 11023ft 244kts
10-Apr-16 14:30 30.881529 -92.046088 117 11009ft 243kts
10-Apr-16 14:31 30.854015 -91.973758 118 11002ft 243kts
10-Apr-16 14:32 30.827279 -91.901241 117 11003ft 243kts
10-Apr-16 14:33 30.800676 -91.829020 117 11006ft 243kts
10-Apr-16 14:34 30.774019 -91.756730 117 11011ft 242kts
10-Apr-16 14:35 30.747411 -91.684465 117 11017ft 242kts
10-Apr-16 14:36 30.720819 -91.612220 117 11020ft 242kts
10-Apr-16 14:37 30.693346 -91.538534 117 11017ft 250kts
10-Apr-16 14:38 30.665044 -91.462552 117 10997ft 258kts
10-Apr-16 14:40 30.636818 -91.386513 117 11001ft 254kts
10-Apr-16 14:41 30.609001 -91.311441 117 11000ft 250kts
10-Apr-16 14:42 30.581709 -91.237473 117 11007ft 247kts
10-Apr-16 14:43 30.554740 -91.164233 117 11010ft 245kts
10-Apr-16 14:44 30.527849 -91.091243 117 11011ft 245kts
10-Apr-16 14:45 30.495423 -91.023115 131 10995ft 238kts
10-Apr-16 14:46 30.455224 -90.958657 130 10344ft 249kts
10-Apr-16 14:47 30.414437 -90.893252 130 9974ft 248kts
10-Apr-16 14:48 30.374305 -90.828860 130 9420ft 243kts
10-Apr-16 14:49 30.335183 -90.765269 130 8737ft 244kts
10-Apr-16 14:50 30.294352 -90.699666 130 7676ft 252kts
10-Apr-16 14:51 30.253345 -90.633911 130 6452ft 250kts
10-Apr-16 14:52 30.213067 -90.569109 129 5302ft 245kts
10-Apr-16 14:53 30.172896 -90.506372 129 4203ft 240kts
10-Apr-16 14:54 30.130130 -90.453013 154 3548ft 214kts
10-Apr-16 14:55 30.071785 -90.444141 148 3047ft 206kts
10-Apr-16 14:56 30.054793 -90.383882 105 2645ft 197kts
10-Apr-16 14:57 30.058548 -90.321220 82 2457ft 195kts
10-Apr-16 14:58 30.079507 -90.264242 66 2048ft 193kts
10-Apr-16 14:59 30.102811 -90.212407 92 1816ft 168kts
10-Apr-16 15:00 30.077175 -90.212109 224 1123ft 155kts
10-Apr-16 15:01 30.043527 -90.232178 197 824ft 126kts
10-Apr-16 15:02 30.013245 -90.242150 191 270ft 104kts
10-Apr-16 15:02 29.994487 -90.248158 195 13ft 25kts
10-Apr-16 15:04 29.989746 -90.249694 195 13ft 19kts
10-Apr-16 15:05 29.987564 -90.252029 223 13ft 14kts
10-Apr-16 15:05 29.986612 -90.253080 224 13ft 0kts
10-Apr-16 15:06 29.986612 -90.253081 224 13ft 0kts
10-Apr-16 15:07 29.986610 -90.253083 224 13ft 0kts
10-Apr-16 15:08 29.986609 -90.253083 224 13ft 0kts

Navigation Log

Ident Type
1. KDFW Airport
2. KMSY Airport